CheckWX is a tool to help pilots better visualize weather data.  It is not intended as a substitute for an official pre-flight weather briefing.

18:16:35 UTC

EGMD METAR
Lydd Airport
Lydd, Ashford, United Kingdom
Current

27 mins ago

EGMD 211750Z AUTO 22013KT 9999 NCD 19/15 Q1022
Observed
Jul-21 @ 17:50 UTC
Wind
  • 220° at 13 KTS
Visibility
10,000+ meters
Flight Rules
VFR
Cloud Levels
  • Clear skies
Temperature
19°C / 66°F
Dewpoint
15°C / 59°F
Humidity
78%
Altimeter
30.18" Hg
Pressure
1021.92 hPa
Previous

57 mins ago

EGMD 211720Z 23014KT 9999 FEW035 19/15 Q1022
Observed
Jul-21 @ 17:20 UTC
Wind
  • 230° at 14 KTS
Visibility
10,000+ meters
Flight Rules
VFR
Cloud Levels
  • Few at 3,500' AGL
Temperature
19°C / 66°F
Dewpoint
15°C / 59°F
Humidity
78%
Altimeter
30.18" Hg
Pressure
1021.92 hPa
Previous

1 hour ago

EGMD 211650Z 23016KT 9999 FEW035 19/15 Q1022
Observed
Jul-21 @ 16:50 UTC
Wind
  • 230° at 16 KTS
Visibility
10,000+ meters
Flight Rules
VFR
Cloud Levels
  • Few at 3,500' AGL
Temperature
19°C / 66°F
Dewpoint
15°C / 59°F
Humidity
78%
Altimeter
30.18" Hg
Pressure
1021.92 hPa